KAVQ

Marana Regional Airport

Marana, Arizona, USA
METAR KAVQ 230915Z AUTO 00000KT 10SM CLR 20/16 A2990 RMK AO2 T01950158
Observed Flight Rules
Oct-23 @ 09:15 UTC (23 minutes ago) Visual Flight Rules
Visibility Clouds
10 miles
  • Clear skies
Temperatures Readings
Current 20°C / 68°F
Dewpoint 16°C / 61°F
Humidity 78%
Altimeter 29.9" Hg
Pressure 1013 hPa
Elevation 619
METAR KAVQ 230915Z AUTO 00000KT 10SM CLR 20/16 A2990 RMK AO2 T01950158
Observed Flight Rules
Oct-23 @ 09:15 UTC
(23 minutes ago)
VFR
Clouds
  • Clear skies
Temperature Dewpoint
20°C / 68°F 16°C / 61°F
Humidity Altimeter Pressure
78% 29.9" Hg 1013 hPa